CYYC

Calgary International Airport

Calgary, Alberta, Canada
METAR CYYC 121000Z 15002KT 15SM FEW160 SCT180 SCT210 M03/M09 A2929 RMK AC1AS2CI1 PRESRR SLP960
Observed Flight Rules
Dec-12 @ 10:00 UTC (20 minutes ago) Visual Flight Rules
Wind Visibility Clouds
150° at 2 knots 15 miles
  • Few at 16,000' AGL
  • Scattered at 18,000' AGL
  • Scattered at 21,000' AGL
Temperatures Readings
Current -3°C / 27°F
Dewpoint -9°C / 16°F
Humidity 64%
Altimeter 29.29" Hg
Pressure 996 hPa
Elevation 1084
METAR CYYC 121000Z 15002KT 15SM FEW160 SCT180 SCT210 M03/M09 A2929 RMK AC1AS2CI1 PRESRR SLP960
Observed Flight Rules
Dec-12 @ 10:00 UTC
(20 minutes ago)
VFR
Wind Visibility
150° at 2 knots 15 miles
Clouds
  • Few at 16,000' AGL
  • Scattered at 18,000' AGL
  • Scattered at 21,000' AGL
Temperature Dewpoint
-3°C / 27°F -9°C / 16°F
Humidity Altimeter Pressure
64% 29.29" Hg 996 hPa